This demonstration page uses our WeatherBlox Daily Observations layout. Learn more.

38.88101, -77.10428

Hourly Observations for June 12, 2017

Temp ( °F °C ) Dew Point ( °F °C ) Humidity (%) Winds ( mph kmh ) Pressure ( in mb ) Visibility ( mi km ) Precip ( " mm )
12:52 am 00:52 Partly Cloudy 78 25.6 70 21.1 76 76 S 6 9 30.07 1018 10 16.0934 0 0
1:52 am 01:52 Mostly Clear 77 25 70 21.1 79 79 S 7 11 30.06 1018 10 16.0934 0 0
2:52 am 02:52 Clear 76 24.4 71 21.7 85 85 S 6 9 30.06 1018 10 16.0934 0 0
3:52 am 03:52 Clear 76 24.4 68 20 77 77 S 5 7 30.06 1018 10 16.0934 0 0
4:52 am 04:52 Mostly Clear 76 24.4 67 19.4 74 74 Calm 30.09 1019 10 16.0934 0 0
5:52 am 05:52 Mostly Cloudy 74 23.3 69 20.6 85 85 Calm 30.11 1020 10 16.0934 0 0
6:52 am 06:52 Partly Cloudy 76 24.4 68 20 77 77 Calm 30.12 1020 10 16.0934 0 0
7:52 am 07:52 Partly Cloudy 78 25.6 69 20.6 74 74 Calm 30.12 1020 10 16.0934 0 0
8:52 am 08:52 Mostly Sunny 80 26.7 69 20.6 69 69 SE 3 6 30.12 1020 10 16.0934 0 0
9:52 am 09:52 Mostly Sunny 84 28.9 67 19.4 57 57 E 5 7 30.12 1020 10 16.0934 0 0
10:52 am 10:52 Partly Cloudy 91 32.8 63 17.2 39 39 N 8 13 30.11 1020 10 16.0934 0 0
11:52 am 11:52 Partly Cloudy 92 33.3 61 16.1 36 36 NNE 10 17 30.1 1019 10 16.0934 0 0
12:52 pm 12:52 Mostly Sunny 93 33.9 61 16.1 34 34 NNE 6 9 30.08 1019 10 16.0934 0 0
1:52 pm 13:52 Partly Cloudy 90 32.2 65 18.3 44 44 S 8 13 30.06 1018 10 16.0934 0 0
2:52 pm 14:52 Partly Cloudy 95 35 61 16.1 32 32 VRB 6 9 30.04 1017 10 16.0934 0 0
3:52 pm 15:52 Mostly Cloudy 92 33.3 62 16.7 37 37 WNW 10 17 30.03 1017 10 16.0934 0 0
4:52 pm 16:52 Mostly Cloudy 92 33.3 63 17.2 38 38 WSW 10 17 30.01 1016 10 16.0934 0 0
5:52 pm 17:52 Mostly Cloudy 91 32.8 64 17.8 41 41 WSW 14 22 30 1016 10 16.0934 0 0
6:52 pm 18:52 Mostly Cloudy 91 32.8 65 18.3 42 42 SSW 13 20 30 1016 10 16.0934 0 0
7:52 pm 19:52 Mostly Cloudy 88 31.1 66 18.9 48 48 SSW 12 19 30 1016 10 16.0934 0 0
8:52 pm 20:52 Mostly Cloudy 83 28.3 72 22.2 70 70 S 8 13 30 1016 10 16.0934 0 0
9:52 pm 21:52 Mostly Cloudy 82 27.8 73 22.8 74 74 S 6 9 30.01 1016 10 16.0934 0 0
10:52 pm 22:52 Partly Cloudy 80 26.7 73 22.8 79 79 S 7 11 30.02 1017 10 16.0934 0 0
11:52 pm 23:52 Mostly Clear 79 26.1 73 22.8 82 82 S 6 9 30.02 1017 10 16.0934 0 0

Powered by AerisWeather